Yigo, Guam
Current Conditions -  °F | °C
As of 11:58 AM on Monday 26 Jan 2015 (Local Time) from PGUA Reporting Station
Scattered Clouds Scattered Clouds  
Wind Chill: 83°   Ceiling: Unl
Heat Index: 90°   Visibility: 10mi
Dew Point: 75°   Wind: 15mph
Humidity: 76%   Direction: 70°ENE
Pressure: 29.93"   Gusts: NA
Location:  13.53°N, 144.89°E
Report Text: PGUA 260158Z AUTO 07013KT 10SM SCT017 28/24 A2993 RMK AO2 SLP126 T02840239 $
Loading
Personal Weather Stations






























Interactive Weather Map New forecast layout! Learn more

10-Day Weather Forecast

Advertisements
Track Severe Weather on mobile